createdAt,value
2022-09-23T00:04:04.811Z,14.12
2022-09-23T00:09:07.120Z,13.47
2022-09-23T00:14:10.162Z,11.54
2022-09-23T00:19:12.501Z,12.41
2022-09-23T00:24:15.722Z,13.81
2022-09-23T00:29:18.012Z,14.22
2022-09-23T00:34:20.534Z,12.32
2022-09-23T00:39:23.813Z,10.84
2022-09-23T00:44:29.062Z,12.45
2022-09-23T00:49:31.395Z,13.50
2022-09-23T00:54:33.963Z,14.00
2022-09-23T00:59:36.815Z,14.31
2022-09-23T01:04:39.809Z,12.89
2022-09-23T01:09:42.557Z,12.32
2022-09-23T01:14:52.767Z,13.59
2022-09-23T01:20:03.230Z,14.12
2022-09-23T01:25:16.643Z,14.33
2022-09-23T01:30:21.866Z,12.58
2022-09-23T01:35:25.120Z,11.20
2022-09-23T01:40:33.961Z,12.85
2022-09-23T01:45:43.366Z,14.03
2022-09-23T01:50:54.146Z,13.53
2022-09-23T01:56:00.247Z,11.54
2022-09-23T02:01:04.951Z,12.69
2022-09-23T02:06:11.169Z,13.71
2022-09-23T02:11:18.034Z,12.21
2022-09-23T02:16:21.705Z,11.41
2022-09-23T02:21:27.391Z,12.92
2022-09-23T02:26:33.738Z,13.47
2022-09-23T02:31:39.414Z,11.65
2022-09-23T02:36:49.526Z,11.34
2022-09-23T02:41:58.921Z,12.94
2022-09-23T02:47:01.482Z,12.70
2022-09-23T02:52:05.488Z,10.59
2022-09-23T02:57:08.206Z,11.27
2022-09-23T03:02:14.570Z,12.77
2022-09-23T03:07:17.942Z,12.98
2022-09-23T03:12:31.712Z,10.97
2022-09-23T03:17:38.034Z,11.08
2022-09-23T03:22:44.873Z,12.53
2022-09-23T03:27:47.203Z,13.06
2022-09-23T03:32:51.233Z,11.83
2022-09-23T03:37:56.644Z,10.29
2022-09-23T03:43:00.282Z,11.85
2022-09-23T03:48:02.929Z,12.90
2022-09-23T03:53:05.285Z,11.40
2022-09-23T03:58:08.158Z,9.79
2022-09-23T04:03:11.944Z,11.44
2022-09-23T04:08:14.453Z,12.92
2022-09-23T04:13:17.080Z,11.98
2022-09-23T04:18:19.590Z,10.24
2022-09-23T04:23:21.932Z,11.74
2022-09-23T04:28:24.389Z,12.92
2022-09-23T04:33:26.752Z,12.43
2022-09-23T04:38:29.962Z,10.77
2022-09-23T04:43:32.323Z,12.33
2022-09-23T04:48:36.940Z,13.50
2022-09-23T04:53:40.295Z,12.61
2022-09-23T04:58:43.316Z,10.85
2022-09-23T05:03:46.281Z,11.54
2022-09-23T05:08:50.236Z,13.21
2022-09-23T05:13:53.529Z,13.92
2022-09-23T05:18:56.224Z,12.37
2022-09-23T05:24:00.533Z,11.16
2022-09-23T05:29:03.064Z,12.88
2022-09-23T05:34:05.882Z,13.93
2022-09-23T05:39:08.824Z,12.62
2022-09-23T05:44:11.464Z,12.15
2022-09-23T05:49:13.855Z,13.80
2022-09-23T05:54:16.397Z,14.31
2022-09-23T05:59:19.018Z,12.55
2022-09-23T06:04:21.414Z,11.52
2022-09-23T06:09:23.809Z,13.43
2022-09-23T06:14:26.210Z,14.72
2022-09-23T06:19:28.683Z,14.32
2022-09-23T06:24:31.910Z,12.56
2022-09-23T06:29:34.405Z,12.74
2022-09-23T06:34:47.822Z,14.74
2022-09-23T06:39:54.709Z,15.47
2022-09-23T06:44:57.198Z,13.76
2022-09-23T06:49:59.735Z,13.73
2022-09-23T06:55:02.279Z,15.59
2022-09-23T07:00:05.440Z,14.86
2022-09-23T07:05:09.436Z,13.96
2022-09-23T07:10:11.953Z,15.52
2022-09-23T07:15:16.108Z,14.24
2022-09-23T07:20:18.673Z,14.04
2022-09-23T07:25:21.227Z,15.18
2022-09-23T07:30:25.502Z,13.43
2022-09-23T07:35:28.266Z,14.08
2022-09-23T07:40:30.854Z,15.39
2022-09-23T07:45:34.142Z,13.90
2022-09-23T07:50:38.533Z,14.80
2022-09-23T07:55:59.393Z,16.03
2022-09-23T08:01:10.424Z,14.49
2022-09-23T08:06:13.773Z,14.87
2022-09-23T08:11:16.291Z,16.72
2022-09-23T08:16:19.246Z,15.56
2022-09-23T08:21:22.491Z,14.77
2022-09-23T08:26:25.079Z,16.73
2022-09-23T08:31:27.659Z,16.62
2022-09-23T08:36:31.157Z,15.17
2022-09-23T08:41:36.554Z,16.34
2022-09-23T08:46:42.211Z,17.17
2022-09-23T08:51:46.454Z,15.71
2022-09-23T08:56:51.319Z,17.07
2022-09-23T09:01:58.042Z,17.02
2022-09-23T09:12:33.235Z,15.60
2022-09-23T09:17:38.306Z,17.42
2022-09-23T09:22:43.712Z,16.22
2022-09-23T09:27:47.517Z,15.39
2022-09-23T09:32:52.939Z,17.15
2022-09-23T09:37:55.884Z,17.31
2022-09-23T09:42:58.422Z,16.16
2022-09-23T09:48:06.406Z,16.42
2022-09-23T09:53:11.736Z,17.10
2022-09-23T09:58:16.411Z,16.12
2022-09-23T10:03:24.303Z,15.40
2022-09-23T10:08:31.784Z,15.15
2022-09-23T10:13:34.269Z,15.16
2022-09-23T10:18:37.432Z,15.38
2022-09-23T10:23:41.764Z,17.36
2022-09-23T10:28:47.001Z,17.42
2022-09-23T10:33:50.686Z,17.57
2022-09-23T10:39:16.597Z,17.88
2022-09-23T10:44:29.689Z,18.44
2022-09-23T10:49:35.560Z,17.22
2022-09-23T10:54:40.929Z,16.35
2022-09-23T10:59:51.615Z,15.92
2022-09-23T11:11:34.073Z,16.22
2022-09-23T11:16:39.153Z,16.47
2022-09-23T11:21:44.673Z,16.63
2022-09-23T11:26:55.537Z,16.74
2022-09-23T11:32:01.072Z,16.91
2022-09-23T11:37:07.160Z,16.82
2022-09-23T11:42:14.584Z,16.40
2022-09-23T11:47:21.755Z,15.80
2022-09-23T11:52:24.216Z,15.17
2022-09-23T11:57:49.492Z,14.61
2022-09-23T12:03:04.548Z,14.15
2022-09-23T12:08:10.793Z,13.82
2022-09-23T12:13:19.314Z,13.69
2022-09-23T12:18:35.823Z,15.88
2022-09-23T12:23:38.270Z,16.00
2022-09-23T12:28:44.435Z,14.92
2022-09-23T12:33:50.230Z,14.37
2022-09-23T12:38:56.060Z,14.08
2022-09-23T12:44:01.521Z,13.97
2022-09-23T12:49:05.201Z,13.97
2022-09-23T12:54:10.665Z,14.08
2022-09-23T12:59:16.051Z,14.22
2022-09-23T13:04:24.348Z,14.44
2022-09-23T13:09:29.034Z,14.73
2022-09-23T13:14:32.728Z,15.03
2022-09-23T13:19:38.666Z,15.16
2022-09-23T13:24:43.179Z,15.11
2022-09-23T13:30:06.001Z,15.13
2022-09-23T13:35:11.498Z,15.24
2022-09-23T13:40:17.412Z,15.42
2022-09-23T13:45:21.842Z,15.64
2022-09-23T13:50:24.706Z,15.97
2022-09-23T13:55:31.072Z,16.29
2022-09-23T14:00:35.837Z,16.61
2022-09-23T14:05:38.449Z,16.77
2022-09-23T14:10:44.967Z,16.69
2022-09-23T14:15:48.551Z,16.62
2022-09-23T14:20:51.025Z,16.82
2022-09-23T14:25:54.372Z,17.31
2022-09-23T14:30:58.385Z,17.27
2022-09-23T14:36:06.623Z,17.22
2022-09-23T14:41:21.764Z,17.45
2022-09-23T14:46:26.085Z,17.63
2022-09-23T14:51:31.470Z,17.33
2022-09-23T14:56:41.241Z,16.73
2022-09-23T15:01:43.850Z,15.98
2022-09-23T15:06:49.810Z,15.31
2022-09-23T15:11:54.061Z,14.90
2022-09-23T15:16:56.846Z,14.59
2022-09-23T15:21:59.942Z,14.33
2022-09-23T15:27:02.567Z,14.17
2022-09-23T15:32:08.524Z,14.12
2022-09-23T15:37:12.579Z,14.86
2022-09-23T15:42:15.018Z,17.37
2022-09-23T15:47:18.620Z,17.91
2022-09-23T15:52:22.761Z,16.62
2022-09-23T15:57:25.984Z,15.88
2022-09-23T16:02:28.911Z,15.38
2022-09-23T16:07:31.484Z,14.97
2022-09-23T16:12:33.989Z,14.61
2022-09-23T16:17:36.619Z,14.28
2022-09-23T16:22:39.191Z,14.01
2022-09-23T16:27:41.657Z,15.51
2022-09-23T16:32:44.185Z,17.54
2022-09-23T16:37:49.668Z,18.11
2022-09-23T16:42:54.171Z,16.55
2022-09-23T16:47:56.860Z,15.43
2022-09-23T16:52:59.363Z,14.75
2022-09-23T16:58:01.849Z,14.24
2022-09-23T17:03:07.795Z,14.33
2022-09-23T17:08:13.237Z,16.69
2022-09-23T17:13:16.625Z,17.97
2022-09-23T17:18:20.637Z,17.05
2022-09-23T17:23:23.089Z,15.64
2022-09-23T17:28:25.722Z,14.80
2022-09-23T17:33:29.571Z,14.47
2022-09-23T17:38:33.040Z,16.45
2022-09-23T17:43:36.160Z,17.92
2022-09-23T17:48:41.270Z,17.43
2022-09-23T17:53:45.302Z,15.85
2022-09-23T17:58:48.825Z,14.94
2022-09-23T18:03:54.590Z,14.29
2022-09-23T18:08:58.500Z,14.94
2022-09-23T18:14:03.171Z,17.04
2022-09-23T18:19:06.251Z,17.77
2022-09-23T18:24:31.349Z,16.31
2022-09-23T18:29:32.913Z,15.07
2022-09-23T18:34:35.390Z,14.37
2022-09-23T18:39:38.146Z,15.70
2022-09-23T18:44:40.688Z,17.49
2022-09-23T18:49:46.209Z,17.29
2022-09-23T18:54:52.984Z,15.65
2022-09-23T18:59:57.455Z,14.75
2022-09-23T19:04:59.918Z,16.23
2022-09-23T19:10:02.428Z,17.76
2022-09-23T19:15:05.570Z,17.26
2022-09-23T19:20:08.397Z,15.62
2022-09-23T19:25:11.142Z,14.67
2022-09-23T19:30:13.639Z,15.23
2022-09-23T19:35:16.143Z,17.10
2022-09-23T19:40:19.487Z,17.78
2022-09-23T19:45:22.540Z,16.50
2022-09-23T19:50:25.087Z,14.94
2022-09-23T19:55:28.385Z,15.73
2022-09-23T20:00:31.489Z,17.47
2022-09-23T20:05:33.977Z,17.54
2022-09-23T20:10:38.120Z,15.88
2022-09-23T20:15:40.620Z,14.82
2022-09-23T20:20:43.254Z,15.63
2022-09-23T20:25:57.367Z,17.40
2022-09-23T20:30:59.963Z,17.64
2022-09-23T20:36:02.651Z,15.94
2022-09-23T20:41:06.272Z,14.73
2022-09-23T20:46:09.070Z,15.76
2022-09-23T20:51:11.727Z,17.45
2022-09-23T20:56:15.401Z,17.40
2022-09-23T21:01:18.981Z,15.67
2022-09-23T21:06:25.082Z,15.05
2022-09-23T21:11:29.086Z,16.84
2022-09-23T21:16:31.720Z,17.88
2022-09-23T21:21:34.663Z,17.20
2022-09-23T21:26:37.276Z,15.37
2022-09-23T21:31:40.038Z,15.05
2022-09-23T21:36:44.093Z,16.90
2022-09-23T21:41:46.655Z,16.79
2022-09-23T21:46:49.202Z,14.97
2022-09-23T21:51:55.087Z,13.82
2022-09-23T21:56:57.620Z,14.40
2022-09-23T22:02:00.143Z,16.45
2022-09-23T22:07:03.272Z,16.67
2022-09-23T22:12:07.716Z,14.97
2022-09-23T22:17:12.237Z,13.85
2022-09-23T22:22:15.634Z,13.58
2022-09-23T22:27:18.984Z,15.58
2022-09-23T22:32:24.567Z,16.79
2022-09-23T22:37:28.436Z,16.31
2022-09-23T22:42:30.911Z,14.42
2022-09-23T22:47:37.035Z,13.22
2022-09-23T22:52:40.386Z,13.10
2022-09-23T22:57:42.906Z,15.18
2022-09-23T23:02:45.417Z,16.29
2022-09-23T23:07:48.020Z,15.48
2022-09-23T23:12:52.181Z,13.68
2022-09-23T23:17:59.184Z,13.77
2022-09-23T23:23:02.383Z,15.61
2022-09-23T23:28:05.885Z,15.78
2022-09-23T23:33:08.459Z,13.91
2022-09-23T23:38:11.220Z,12.70
2022-09-23T23:43:14.810Z,14.02
2022-09-23T23:48:18.368Z,15.60
2022-09-23T23:53:21.750Z,14.99
2022-09-23T23:58:24.264Z,13.18
